• Join FlightAware (Why Join?)
  • Login
  • US Flag 
08:39AM EDT


 

Airport Tracker/Info


-or-


 

Live Flight TrackerFlight Track Log ✈ N240JK ✈ 30-Sep-2013 ✈ KUES - KPIE

Flight Track Log - Related Links

Times and Time Zones

All times are in EDT time to prevent confusion due to time zone crossing. See the N240JK flight status page for this flight to view local times or setup timezone preferences in your user account.

Time Position Orientation Groundspeed Altitude Reporting Facility
EDT Latitude Longitude Course Direction KTS MPH feet Rate Location/Type
02:12PM 43.0333 -88.2167 90° East 184 212 1,500  Level KMKE
02:13PM 43.0333 -88.1667 90° East 205 236 2,800 1,680 Climbing KMKE
02:14PM 42.9797 -88.1494 167° South 202 232 4,000 660 Climbing Chicago Center
02:15PM 42.9239 -88.1386 172° South 203 234 4,100 1,440 Climbing Chicago Center
02:16PM 42.8525 -88.1342 177° South 247 284 7,000 2,820 Climbing Chicago Center
02:17PM 42.7742 -88.1225 174° South 280 322 10,000 2,820 Climbing Chicago Center
02:18PM 42.6906 -88.1072 172° South 299 344 12,900 2,640 Climbing Chicago Center
02:19PM 42.6044 -88.0833 168° South 315 362 15,500 2,580 Climbing Chicago Center
02:20PM 42.4981 -88.0344 161° South 335 386 18,300 2,340 Climbing Chicago Center
02:21PM 42.4017 -87.9908 162° South 364 419 20,400 2,040 Climbing Chicago Center
02:22PM 42.3022 -87.9483 162° South 393 452 22,600 2,040 Climbing Chicago Center
02:23PM 42.1942 -87.9031 163° South 408 470 24,700 2,040 Climbing Chicago Center
02:24PM 42.0819 -87.8528 162° South 422 486 26,900 2,100 Climbing Chicago Center
02:25PM 41.9411 -87.7903 162° South 442 509 29,100 1,980 Climbing Chicago Center
02:26PM 41.8192 -87.7475 165° South 451 519 31,100 1,980 Climbing Chicago Center
02:27PM 41.6964 -87.7019 165° South 455 524 33,200 2,040 Climbing Chicago Center
02:28PM 41.5719 -87.6583 165° South 459 528 35,400 1,980 Climbing Chicago Center
02:29PM 41.4447 -87.6167 166° South 464 534 37,300 1,740 Climbing Chicago Center
02:30PM 41.3169 -87.5725 165° South 471 542 39,000 780 Climbing Chicago Center
02:31PM 41.1856 -87.5256 165° South 483 556 39,000  Level Chicago Center
02:32PM 41.0283 -87.4719 166° South 486 559 39,000  Level Chicago Center
02:33PM 40.8994 -87.4292 166° South 479 551 39,000  Level Chicago Center
02:35PM 40.7717 -87.3869 166° South 476 548 39,000  Level Chicago Center
02:36PM 40.6447 -87.3444 166° South 473 544 39,000  Level Chicago Center
02:37PM 40.5181 -87.3008 165° South 472 543 39,000  Level Chicago Center
02:38PM 40.3794 -87.2539 166° South 469 540 39,000  Level Chicago Center
02:39PM 40.2556 -87.2136 166° South 463 533 39,000  Level Chicago Center
02:40PM 40.1322 -87.1717 165° South 462 532 39,000  Level Chicago Center
02:41PM 39.9856 -87.1236 166° South 457 526 39,000  Level Chicago Center
02:42PM 39.8361 -87.0736 166° South 460 529 39,000  Level Indianapolis Center
02:43PM 39.6897 -87.0286 167° South 457 526 39,000  Level Indianapolis Center
02:44PM 39.5683 -86.9872 165° South 457 526 39,000  Level Indianapolis Center
02:45PM 39.4456 -86.9469 166° South 459 528 39,000  Level Indianapolis Center
02:46PM 39.3233 -86.9064 166° South 456 525 39,000  Level Indianapolis Center
02:47PM 39.2014 -86.8675 166° South 456 525 39,000  Level Indianapolis Center
02:48PM 39.0531 -86.8181 165° South 457 526 39,000  Level Indianapolis Center
02:49PM 38.9303 -86.7783 166° South 454 522 39,000  Level Indianapolis Center
02:50PM 38.8061 -86.7383 166° South 455 524 39,000  Level Indianapolis Center
02:51PM 38.6814 -86.6989 166° South 457 526 39,000  Level Indianapolis Center
02:52PM 38.5564 -86.6586 166° South 458 527 39,000  Level Indianapolis Center
02:53PM 38.4314 -86.6189 166° South 457 526 39,000  Level Indianapolis Center
02:54PM 38.3061 -86.5803 166° South 457 526 39,000  Level Indianapolis Center
02:56PM 38.1800 -86.5403 166° South 460 529 39,000  Level Indianapolis Center
02:57PM 38.0544 -86.5014 166° South 460 529 39,000  Level Indianapolis Center
02:58PM 37.9042 -86.4533 166° South 460 529 39,000  Level Indianapolis Center
02:59PM 37.7822 -86.4158 166° South 462 532 39,000  Level Indianapolis Center
03:00PM 37.6564 -86.3839 169° South 458 527 39,000  Level Indianapolis Center
03:01PM 37.5294 -86.3425 166° South 463 533 39,000  Level Indianapolis Center
03:02PM 37.4025 -86.3033 166° South 463 533 39,000  Level Indianapolis Center
03:03PM 37.2744 -86.2619 166° South 466 536 39,000  Level Indianapolis Center
03:04PM 37.1269 -86.2172 166° South 463 533 39,000  Level Indianapolis Center
03:05PM 36.9997 -86.1794 167° South 462 532 39,000  Level Indianapolis Center
03:06PM 36.8722 -86.1411 166° South 463 533 39,000  Level Indianapolis Center
03:07PM 36.7464 -86.1025 166° South 460 529 39,000  Level Indianapolis Center
03:08PM 36.6194 -86.0636 166° South 460 529 39,000  Level Indianapolis Center
03:09PM 36.4936 -86.0264 167° South 457 526 39,000  Level Indianapolis Center
03:10PM 36.3375 -85.9772 166° South 455 524 39,000  Level Memphis Center
03:11PM 36.2114 -85.9428 168° South 455 524 39,000  Level Memphis Center
03:12PM 36.0892 -85.9058 166° South 455 524 39,000  Level Memphis Center
03:13PM 35.9625 -85.8667 166° South 455 524 39,000  Level Memphis Center
03:15PM 35.7536 -85.8094 167° South 458 527 39,000  Level Atlanta Center
03:16PM 35.6289 -85.7736 167° South 458 527 39,000  Level Atlanta Center
03:17PM 35.5022 -85.7353 166° South 458 527 39,000  Level Atlanta Center
03:18PM 35.3817 -85.6997 166° South 458 527 39,000  Level Atlanta Center
03:19PM 35.2569 -85.6639 167° South 458 527 39,000  Level Atlanta Center
03:20PM 35.1342 -85.6261 166° South 458 527 39,000  Level Atlanta Center
03:21PM 35.0117 -85.5908 167° South 458 527 39,000  Level Atlanta Center
03:22PM 34.8889 -85.5581 168° South 453 521 39,000  Level Atlanta Center
03:23PM 34.7683 -85.5206 166° South 453 521 39,000  Level Atlanta Center
03:24PM 34.6478 -85.4881 167° South 453 521 39,000  Level Atlanta Center
03:25PM 34.5269 -85.4533 167° South 453 521 39,000  Level Atlanta Center
03:26PM 34.4064 -85.4211 168° South 453 521 39,000  Level Atlanta Center
03:27PM 34.3022 -85.3917 167° South 447 514 39,000  Level Atlanta Center
03:28PM 34.1839 -85.3572 166° South 447 514 39,000  Level Atlanta Center
03:29PM 34.0653 -85.3228 166° South 447 514 39,000  Level Atlanta Center
03:30PM 33.9486 -85.2933 168° South 440 506 39,000  Level Atlanta Center
03:31PM 33.8258 -85.2592 167° South 440 506 39,000  Level Atlanta Center
03:32PM 33.7031 -85.2250 167° South 450 518 39,000  Level Atlanta Center
03:33PM 33.5803 -85.1908 167° South 450 518 39,000  Level Atlanta Center
03:34PM 33.4447 -85.1517 166° South 450 518 39,000  Level Atlanta Center
03:35PM 33.3178 -85.1178 167° South 455 524 39,000  Level Atlanta Center
03:36PM 33.1928 -85.0839 167° South 460 529 39,000  Level Atlanta Center
03:37PM 33.0678 -85.0503 167° South 460 529 39,000  Level Atlanta Center
03:38PM 32.9492 -85.0217 169° South 460 529 39,000  Level Atlanta Center
03:39PM 32.8242 -84.9831 165° South 454 522 39,000  Level Atlanta Center
03:40PM 32.7014 -84.9422 164° South 452 520 39,000  Level Atlanta Center
03:41PM 32.5764 -84.9064 166° South 452 520 39,000  Level Atlanta Center
03:42PM 32.4597 -84.8758 168° South 452 520 39,000  Level Atlanta Center
03:43PM 32.3306 -84.8428 168° South 452 520 39,000  Level Atlanta Center
03:44PM 32.2097 -84.8169 170° South 452 520 39,000  Level Atlanta Center
03:45PM 32.0847 -84.7817 167° South 452 520 39,000  Level Atlanta Center
03:47PM 31.8756 -84.7275 168° South 450 518 39,000  Level Jacksonville Center
03:48PM 31.7572 -84.6883 164° South 450 518 39,000  Level Jacksonville Center
03:49PM 31.6261 -84.6592 169° South 455 524 39,000  Level Jacksonville Center
03:50PM 31.5117 -84.6275 167° South 468 539 39,000  Level Jacksonville Center
03:51PM 31.3619 -84.5858 167° South 468 539 39,000  Level Jacksonville Center
03:52PM 31.2369 -84.5544 168° South 468 539 39,000  Level Jacksonville Center
03:53PM 31.1100 -84.5208 167° South 468 539 39,000  Level Jacksonville Center
03:54PM 30.9875 -84.4797 164° South 468 539 39,000  Level Jacksonville Center
03:55PM 30.8669 -84.4222 158° South 468 539 39,000  Level Jacksonville Center
03:56PM 30.7467 -84.3597 156° South 473 544 39,000  Level Jacksonville Center
03:57PM 30.6242 -84.2975 156° South 473 544 39,000  Level Jacksonville Center
03:58PM 30.5203 -84.2431 156° South 473 544 39,000  Level Jacksonville Center
03:59PM 30.3875 -84.1786 157° South 473 544 39,000  Level Jacksonville Center
04:00PM 30.2692 -84.1119 154° Southeast 468 539 39,000  Level Jacksonville Center
04:01PM 30.1506 -84.0481 155° Southeast 468 539 39,000 -240 Level Jacksonville Center
04:02PM 30.0322 -83.9769 153° Southeast 473 544 38,600 -960 Descending Jacksonville Center
04:03PM 29.9264 -83.9136 153° Southeast 473 544 37,100 -1,500 Descending Jacksonville Center
04:04PM 29.8058 -83.8453 154° Southeast 478 550 35,600 -1,620 Descending Jacksonville Center
04:05PM 29.6872 -83.7772 154° Southeast 478 550 33,900 -1,800 Descending Jacksonville Center
04:06PM 29.5686 -83.7117 154° Southeast 478 550 32,100 -1,800 Descending Jacksonville Center
04:07PM 29.4542 -83.6439 153° Southeast 473 544 30,300 -1,800 Descending Jacksonville Center
04:08PM 29.3397 -83.5786 154° Southeast 467 537 28,600 -1,680 Descending Jacksonville Center
04:09PM 29.2233 -83.5136 154° Southeast 462 532 27,000 -1,440 Descending Jacksonville Center
04:10PM 29.1172 -83.4464 151° Southeast 450 518 25,800 -1,560 Descending Jacksonville Center
04:11PM 29.0150 -83.3817 151° Southeast 438 504 23,900 -1,860 Descending Jacksonville Center
04:12PM 28.9108 -83.3172 152° Southeast 427 491 22,100 -1,920 Descending Jacksonville Center
04:13PM 28.8111 -83.2481 149° Southeast 422 486 20,100 -1,980 Descending Jacksonville Center
04:14PM 28.7131 -83.1886 152° Southeast 411 473 18,200 -1,980 Descending Jacksonville Center
04:16PM 28.5000 -83.0500 150° Southeast 368 423 14,000 -1,860 Descending Tampa TRACON
04:16PM 28.4500 -83.0167 150° Southeast 318 366 12,900 -1,380 Descending Tampa TRACON
04:17PM 28.3667 -82.9833 161° South 288 331 11,600 -1,320 Descending Tampa TRACON
04:18PM 28.2833 -82.9333 152° Southeast 320 368 10,300 -1,440 Descending Tampa TRACON
04:20PM 28.2000 -82.9000 161° South 284 327 8,700 -1,620 Descending Tampa TRACON
04:21PM 28.1333 -82.8667 156° South 263 303 6,900 -1,860 Descending Tampa TRACON
04:22PM 28.0667 -82.8333 156° South 258 297 5,000 -1,500 Descending Tampa TRACON
04:23PM 28.0000 -82.8333 180° South 239 275 4,000 -900 Descending Tampa TRACON
04:24PM 27.9500 -82.8333 180° South 194 223 3,300 -540 Descending Tampa TRACON
04:24PM 27.9000 -82.8333 180° South 187 215 3,000 -300 Descending Tampa TRACON
04:25PM 27.8500 -82.8167 164° South 184 212 2,800 -540 Descending Tampa TRACON
04:27PM 27.8333 -82.7500 106° East 194 223 1,900 -600 Descending Tampa TRACON
04:27PM 27.8167 -82.7000 111° Southeast 146 168 1,600 -360 Descending Tampa TRACON
04:29PM 27.8333 -82.6667 61° Northeast 145 167 1,300 -480 Descending Tampa TRACON
04:29PM 27.8667 -82.6833 336° Northwest 137 158 700 -720 Descending Tampa TRACON